sensor_id;sensor_type;location;lat;lon;timestamp;P1;durP1;ratioP1;P2;durP2;ratioP2
64208;SDS011;50527;52.414;13.226;2023-05-10T00:00:40;3.67;;;1.10;;
64208;SDS011;50527;52.414;13.226;2023-05-10T00:03:06;3.38;;;1.48;;
64208;SDS011;50527;52.414;13.226;2023-05-10T00:05:32;4.45;;;1.20;;
64208;SDS011;50527;52.414;13.226;2023-05-10T00:07:57;3.45;;;1.42;;
64208;SDS011;50527;52.414;13.226;2023-05-10T00:10:23;3.22;;;1.30;;
64208;SDS011;50527;52.414;13.226;2023-05-10T00:12:48;6.72;;;1.40;;
64208;SDS011;50527;52.414;13.226;2023-05-10T00:15:14;3.47;;;1.55;;
64208;SDS011;50527;52.414;13.226;2023-05-10T00:17:39;2.53;;;1.20;;
64208;SDS011;50527;52.414;13.226;2023-05-10T00:20:05;3.33;;;1.23;;
64208;SDS011;50527;52.414;13.226;2023-05-10T00:22:31;3.03;;;1.20;;
64208;SDS011;50527;52.414;13.226;2023-05-10T00:24:57;4.75;;;1.42;;
64208;SDS011;50527;52.414;13.226;2023-05-10T00:27:23;4.60;;;1.45;;
64208;SDS011;50527;52.414;13.226;2023-05-10T00:29:48;2.78;;;1.40;;
64208;SDS011;50527;52.414;13.226;2023-05-10T00:32:14;3.45;;;1.25;;
64208;SDS011;50527;52.414;13.226;2023-05-10T00:34:39;2.70;;;1.30;;
64208;SDS011;50527;52.414;13.226;2023-05-10T00:37:05;6.15;;;1.40;;
64208;SDS011;50527;52.414;13.226;2023-05-10T00:39:30;2.10;;;1.15;;
64208;SDS011;50527;52.414;13.226;2023-05-10T00:41:56;2.53;;;1.23;;
64208;SDS011;50527;52.414;13.226;2023-05-10T00:44:21;3.63;;;1.25;;
64208;SDS011;50527;52.414;13.226;2023-05-10T00:46:47;5.72;;;1.48;;
64208;SDS011;50527;52.414;13.226;2023-05-10T00:49:14;3.17;;;1.15;;
64208;SDS011;50527;52.414;13.226;2023-05-10T00:51:40;2.65;;;1.27;;
64208;SDS011;50527;52.414;13.226;2023-05-10T00:54:07;5.20;;;1.50;;
64208;SDS011;50527;52.414;13.226;2023-05-10T00:56:34;3.38;;;1.20;;
64208;SDS011;50527;52.414;13.226;2023-05-10T00:58:59;3.10;;;1.48;;
64208;SDS011;50527;52.414;13.226;2023-05-10T01:01:25;3.25;;;1.38;;
64208;SDS011;50527;52.414;13.226;2023-05-10T01:03:50;2.63;;;1.30;;
64208;SDS011;50527;52.414;13.226;2023-05-10T01:06:16;3.67;;;1.58;;
64208;SDS011;50527;52.414;13.226;2023-05-10T01:08:41;2.97;;;1.40;;
64208;SDS011;50527;52.414;13.226;2023-05-10T01:11:07;5.22;;;1.60;;
64208;SDS011;50527;52.414;13.226;2023-05-10T01:13:34;2.50;;;1.23;;
64208;SDS011;50527;52.414;13.226;2023-05-10T01:16:02;4.30;;;1.45;;
64208;SDS011;50527;52.414;13.226;2023-05-10T01:18:28;7.20;;;1.60;;
64208;SDS011;50527;52.414;13.226;2023-05-10T01:24:02;2.90;;;1.40;;
64208;SDS011;50527;52.414;13.226;2023-05-10T01:26:51;4.25;;;1.58;;
64208;SDS011;50527;52.414;13.226;2023-05-10T01:29:31;5.38;;;1.73;;
64208;SDS011;50527;52.414;13.226;2023-05-10T01:32:10;4.15;;;1.77;;
64208;SDS011;50527;52.414;13.226;2023-05-10T01:37:26;6.18;;;1.70;;
64208;SDS011;50527;52.414;13.226;2023-05-10T01:40:00;4.00;;;1.40;;
64208;SDS011;50527;52.414;13.226;2023-05-10T01:42:36;5.00;;;1.77;;
64208;SDS011;50527;52.414;13.226;2023-05-10T01:45:18;3.83;;;1.30;;
64208;SDS011;50527;52.414;13.226;2023-05-10T01:47:51;3.80;;;1.50;;
64208;SDS011;50527;52.414;13.226;2023-05-10T01:50:27;7.93;;;1.80;;
64208;SDS011;50527;52.414;13.226;2023-05-10T01:52:56;3.15;;;1.52;;
64208;SDS011;50527;52.414;13.226;2023-05-10T01:55:24;3.25;;;1.52;;
64208;SDS011;50527;52.414;13.226;2023-05-10T01:57:56;4.22;;;1.70;;
64208;SDS011;50527;52.414;13.226;2023-05-10T02:00:30;2.97;;;1.60;;
64208;SDS011;50527;52.414;13.226;2023-05-10T02:02:58;4.32;;;1.63;;
64208;SDS011;50527;52.414;13.226;2023-05-10T02:05:27;7.18;;;1.92;;
64208;SDS011;50527;52.414;13.226;2023-05-10T02:07:54;3.53;;;1.65;;
64208;SDS011;50527;52.414;13.226;2023-05-10T02:10:22;4.57;;;1.60;;
64208;SDS011;50527;52.414;13.226;2023-05-10T02:12:48;3.00;;;1.50;;
64208;SDS011;50527;52.414;13.226;2023-05-10T02:15:17;3.75;;;1.60;;
64208;SDS011;50527;52.414;13.226;2023-05-10T02:17:46;4.30;;;1.55;;
64208;SDS011;50527;52.414;13.226;2023-05-10T02:20:12;3.97;;;1.60;;
64208;SDS011;50527;52.414;13.226;2023-05-10T02:22:38;4.35;;;1.80;;
64208;SDS011;50527;52.414;13.226;2023-05-10T02:25:05;3.83;;;1.60;;
64208;SDS011;50527;52.414;13.226;2023-05-10T02:27:33;2.92;;;1.38;;
64208;SDS011;50527;52.414;13.226;2023-05-10T02:30:01;2.58;;;1.33;;
64208;SDS011;50527;52.414;13.226;2023-05-10T02:32:27;5.57;;;1.60;;
64208;SDS011;50527;52.414;13.226;2023-05-10T02:34:54;3.85;;;1.60;;
64208;SDS011;50527;52.414;13.226;2023-05-10T02:37:22;3.45;;;1.52;;
64208;SDS011;50527;52.414;13.226;2023-05-10T02:39:49;3.25;;;1.60;;
64208;SDS011;50527;52.414;13.226;2023-05-10T02:42:16;8.30;;;1.55;;
64208;SDS011;50527;52.414;13.226;2023-05-10T02:44:47;3.97;;;1.58;;
64208;SDS011;50527;52.414;13.226;2023-05-10T02:47:15;5.68;;;1.60;;
64208;SDS011;50527;52.414;13.226;2023-05-10T02:49:41;3.83;;;1.60;;
64208;SDS011;50527;52.414;13.226;2023-05-10T02:52:07;2.75;;;1.40;;
64208;SDS011;50527;52.414;13.226;2023-05-10T02:54:35;3.90;;;1.48;;
64208;SDS011;50527;52.414;13.226;2023-05-10T02:57:08;5.28;;;1.60;;
64208;SDS011;50527;52.414;13.226;2023-05-10T02:59:39;6.28;;;1.80;;
64208;SDS011;50527;52.414;13.226;2023-05-10T03:02:05;3.78;;;1.50;;
64208;SDS011;50527;52.414;13.226;2023-05-10T03:04:31;2.85;;;1.50;;
64208;SDS011;50527;52.414;13.226;2023-05-10T03:06:56;7.78;;;1.67;;
64208;SDS011;50527;52.414;13.226;2023-05-10T03:09:22;6.45;;;1.67;;
64208;SDS011;50527;52.414;13.226;2023-05-10T03:22:08;6.15;;;1.85;;
64208;SDS011;50527;52.414;13.226;2023-05-10T03:24:35;4.55;;;1.73;;
64208;SDS011;50527;52.414;13.226;2023-05-10T03:27:04;3.47;;;1.52;;
64208;SDS011;50527;52.414;13.226;2023-05-10T03:29:30;4.65;;;1.63;;
64208;SDS011;50527;52.414;13.226;2023-05-10T03:31:59;3.80;;;1.67;;
64208;SDS011;50527;52.414;13.226;2023-05-10T03:34:25;4.53;;;1.77;;
64208;SDS011;50527;52.414;13.226;2023-05-10T03:36:51;3.15;;;1.27;;
64208;SDS011;50527;52.414;13.226;2023-05-10T03:39:17;4.00;;;1.73;;
64208;SDS011;50527;52.414;13.226;2023-05-10T03:41:42;3.33;;;1.60;;
64208;SDS011;50527;52.414;13.226;2023-05-10T03:44:08;3.97;;;1.73;;
64208;SDS011;50527;52.414;13.226;2023-05-10T03:46:33;4.43;;;1.80;;
64208;SDS011;50527;52.414;13.226;2023-05-10T03:48:59;3.63;;;1.55;;
64208;SDS011;50527;52.414;13.226;2023-05-10T03:51:24;3.63;;;1.40;;
64208;SDS011;50527;52.414;13.226;2023-05-10T03:53:53;5.25;;;1.90;;
64208;SDS011;50527;52.414;13.226;2023-05-10T03:56:19;4.15;;;1.60;;
64208;SDS011;50527;52.414;13.226;2023-05-10T03:58:45;4.68;;;1.60;;
64208;SDS011;50527;52.414;13.226;2023-05-10T04:01:11;4.75;;;1.60;;
64208;SDS011;50527;52.414;13.226;2023-05-10T04:03:37;3.50;;;1.73;;
64208;SDS011;50527;52.414;13.226;2023-05-10T04:06:03;4.30;;;1.40;;
64208;SDS011;50527;52.414;13.226;2023-05-10T04:08:28;5.45;;;1.60;;
64208;SDS011;50527;52.414;13.226;2023-05-10T04:10:54;4.05;;;1.50;;
64208;SDS011;50527;52.414;13.226;2023-05-10T04:13:20;3.35;;;1.27;;
64208;SDS011;50527;52.414;13.226;2023-05-10T04:15:46;3.95;;;1.60;;
64208;SDS011;50527;52.414;13.226;2023-05-10T04:18:11;3.80;;;1.60;;
64208;SDS011;50527;52.414;13.226;2023-05-10T04:20:37;3.33;;;1.40;;
64208;SDS011;50527;52.414;13.226;2023-05-10T04:23:02;2.20;;;1.15;;
64208;SDS011;50527;52.414;13.226;2023-05-10T04:25:27;3.78;;;1.60;;
64208;SDS011;50527;52.414;13.226;2023-05-10T04:27:53;5.05;;;1.33;;
64208;SDS011;50527;52.414;13.226;2023-05-10T04:30:18;5.70;;;1.75;;
64208;SDS011;50527;52.414;13.226;2023-05-10T04:32:44;2.92;;;1.38;;
64208;SDS011;50527;52.414;13.226;2023-05-10T04:35:09;3.05;;;1.30;;
64208;SDS011;50527;52.414;13.226;2023-05-10T04:37:35;4.65;;;1.15;;
64208;SDS011;50527;52.414;13.226;2023-05-10T04:40:01;4.38;;;1.65;;
64208;SDS011;50527;52.414;13.226;2023-05-10T04:42:28;3.13;;;1.55;;
64208;SDS011;50527;52.414;13.226;2023-05-10T04:44:53;4.20;;;1.40;;
64208;SDS011;50527;52.414;13.226;2023-05-10T04:47:19;3.85;;;1.55;;
64208;SDS011;50527;52.414;13.226;2023-05-10T04:49:44;3.55;;;1.58;;
64208;SDS011;50527;52.414;13.226;2023-05-10T04:52:10;5.13;;;1.65;;
64208;SDS011;50527;52.414;13.226;2023-05-10T04:54:36;5.40;;;1.52;;
64208;SDS011;50527;52.414;13.226;2023-05-10T04:57:01;3.50;;;1.40;;
64208;SDS011;50527;52.414;13.226;2023-05-10T04:59:27;3.17;;;1.30;;
64208;SDS011;50527;52.414;13.226;2023-05-10T05:01:52;4.20;;;1.33;;
64208;SDS011;50527;52.414;13.226;2023-05-10T05:04:18;4.70;;;1.17;;
64208;SDS011;50527;52.414;13.226;2023-05-10T05:06:43;5.80;;;1.30;;
64208;SDS011;50527;52.414;13.226;2023-05-10T05:09:09;3.13;;;0.95;;
64208;SDS011;50527;52.414;13.226;2023-05-10T05:11:35;6.13;;;1.23;;
64208;SDS011;50527;52.414;13.226;2023-05-10T05:14:00;4.80;;;1.10;;
64208;SDS011;50527;52.414;13.226;2023-05-10T05:16:26;4.80;;;1.15;;
64208;SDS011;50527;52.414;13.226;2023-05-10T05:18:51;3.13;;;1.33;;
64208;SDS011;50527;52.414;13.226;2023-05-10T05:21:17;3.92;;;1.23;;
64208;SDS011;50527;52.414;13.226;2023-05-10T05:23:44;2.47;;;1.02;;
64208;SDS011;50527;52.414;13.226;2023-05-10T05:26:10;2.47;;;1.13;;
64208;SDS011;50527;52.414;13.226;2023-05-10T05:28:36;6.63;;;1.55;;
64208;SDS011;50527;52.414;13.226;2023-05-10T05:31:02;3.92;;;1.20;;
64208;SDS011;50527;52.414;13.226;2023-05-10T05:33:32;5.65;;;1.33;;
64208;SDS011;50527;52.414;13.226;2023-05-10T05:36:00;3.75;;;1.20;;
64208;SDS011;50527;52.414;13.226;2023-05-10T05:38:26;6.47;;;1.35;;
64208;SDS011;50527;52.414;13.226;2023-05-10T05:40:51;6.55;;;1.40;;
64208;SDS011;50527;52.414;13.226;2023-05-10T05:43:17;1.77;;;1.00;;
64208;SDS011;50527;52.414;13.226;2023-05-10T05:45:42;3.60;;;1.10;;
64208;SDS011;50527;52.414;13.226;2023-05-10T05:48:08;5.45;;;1.30;;
64208;SDS011;50527;52.414;13.226;2023-05-10T05:50:33;4.80;;;1.00;;
64208;SDS011;50527;52.414;13.226;2023-05-10T05:52:59;5.15;;;1.10;;
64208;SDS011;50527;52.414;13.226;2023-05-10T05:55:24;3.38;;;1.10;;
64208;SDS011;50527;52.414;13.226;2023-05-10T05:57:51;3.85;;;1.33;;
64208;SDS011;50527;52.414;13.226;2023-05-10T06:00:16;7.15;;;1.15;;
64208;SDS011;50527;52.414;13.226;2023-05-10T06:02:42;4.68;;;1.00;;
64208;SDS011;50527;52.414;13.226;2023-05-10T06:05:07;3.92;;;0.70;;
64208;SDS011;50527;52.414;13.226;2023-05-10T06:07:33;4.43;;;0.98;;
64208;SDS011;50527;52.414;13.226;2023-05-10T06:09:59;4.22;;;1.02;;
64208;SDS011;50527;52.414;13.226;2023-05-10T06:12:24;2.85;;;1.05;;
64208;SDS011;50527;52.414;13.226;2023-05-10T06:14:50;2.85;;;0.95;;
64208;SDS011;50527;52.414;13.226;2023-05-10T06:17:15;3.55;;;0.70;;
64208;SDS011;50527;52.414;13.226;2023-05-10T06:19:41;3.45;;;0.90;;
64208;SDS011;50527;52.414;13.226;2023-05-10T06:22:06;2.17;;;0.95;;
64208;SDS011;50527;52.414;13.226;2023-05-10T06:24:32;4.38;;;0.82;;
64208;SDS011;50527;52.414;13.226;2023-05-10T06:26:57;5.93;;;0.95;;
64208;SDS011;50527;52.414;13.226;2023-05-10T06:29:25;1.65;;;0.80;;
64208;SDS011;50527;52.414;13.226;2023-05-10T06:31:50;1.83;;;0.85;;
64208;SDS011;50527;52.414;13.226;2023-05-10T06:34:16;3.28;;;0.90;;
64208;SDS011;50527;52.414;13.226;2023-05-10T06:36:41;1.65;;;0.68;;
64208;SDS011;50527;52.414;13.226;2023-05-10T06:39:07;3.17;;;0.75;;
64208;SDS011;50527;52.414;13.226;2023-05-10T06:41:32;4.07;;;0.90;;
64208;SDS011;50527;52.414;13.226;2023-05-10T06:43:58;1.00;;;0.60;;
64208;SDS011;50527;52.414;13.226;2023-05-10T06:46:23;1.95;;;0.82;;
64208;SDS011;50527;52.414;13.226;2023-05-10T06:48:49;3.92;;;0.70;;
64208;SDS011;50527;52.414;13.226;2023-05-10T06:51:14;2.70;;;0.68;;
64208;SDS011;50527;52.414;13.226;2023-05-10T06:53:40;2.63;;;0.70;;
64208;SDS011;50527;52.414;13.226;2023-05-10T06:56:05;3.83;;;0.82;;
64208;SDS011;50527;52.414;13.226;2023-05-10T06:58:31;1.75;;;0.77;;
64208;SDS011;50527;52.414;13.226;2023-05-10T07:01:03;2.67;;;0.70;;
64208;SDS011;50527;52.414;13.226;2023-05-10T07:05:59;3.53;;;0.60;;
64208;SDS011;50527;52.414;13.226;2023-05-10T07:08:27;5.57;;;0.75;;
64208;SDS011;50527;52.414;13.226;2023-05-10T07:10:58;1.80;;;0.68;;
64208;SDS011;50527;52.414;13.226;2023-05-10T07:13:25;4.80;;;0.80;;
64208;SDS011;50527;52.414;13.226;2023-05-10T07:15:50;3.65;;;0.70;;
64208;SDS011;50527;52.414;13.226;2023-05-10T07:18:16;1.63;;;0.60;;
64208;SDS011;50527;52.414;13.226;2023-05-10T07:20:41;2.28;;;0.70;;
64208;SDS011;50527;52.414;13.226;2023-05-10T07:23:07;1.52;;;0.60;;
64208;SDS011;50527;52.414;13.226;2023-05-10T07:25:32;3.13;;;0.60;;
64208;SDS011;50527;52.414;13.226;2023-05-10T07:27:58;2.35;;;0.55;;
64208;SDS011;50527;52.414;13.226;2023-05-10T07:30:23;5.07;;;0.85;;
64208;SDS011;50527;52.414;13.226;2023-05-10T07:32:49;1.90;;;0.60;;
64208;SDS011;50527;52.414;13.226;2023-05-10T07:35:14;1.98;;;0.65;;
64208;SDS011;50527;52.414;13.226;2023-05-10T07:37:40;1.45;;;0.50;;
64208;SDS011;50527;52.414;13.226;2023-05-10T07:40:05;2.33;;;0.85;;
64208;SDS011;50527;52.414;13.226;2023-05-10T07:42:31;2.17;;;0.65;;
64208;SDS011;50527;52.414;13.226;2023-05-10T07:44:57;6.60;;;0.70;;
64208;SDS011;50527;52.414;13.226;2023-05-10T07:47:22;1.10;;;0.60;;
64208;SDS011;50527;52.414;13.226;2023-05-10T07:49:48;1.52;;;0.73;;
64208;SDS011;50527;52.414;13.226;2023-05-10T07:52:14;1.55;;;0.80;;
64208;SDS011;50527;52.414;13.226;2023-05-10T07:54:40;1.23;;;0.57;;
64208;SDS011;50527;52.414;13.226;2023-05-10T07:57:05;3.65;;;0.70;;
64208;SDS011;50527;52.414;13.226;2023-05-10T07:59:31;3.60;;;0.73;;
64208;SDS011;50527;52.414;13.226;2023-05-10T08:01:57;2.50;;;0.73;;
64208;SDS011;50527;52.414;13.226;2023-05-10T08:04:22;5.88;;;0.57;;
64208;SDS011;50527;52.414;13.226;2023-05-10T08:06:48;1.95;;;0.70;;
64208;SDS011;50527;52.414;13.226;2023-05-10T08:09:13;3.72;;;0.73;;
64208;SDS011;50527;52.414;13.226;2023-05-10T08:11:39;2.78;;;0.80;;
64208;SDS011;50527;52.414;13.226;2023-05-10T08:14:05;5.20;;;0.75;;
64208;SDS011;50527;52.414;13.226;2023-05-10T08:16:30;1.33;;;0.60;;
64208;SDS011;50527;52.414;13.226;2023-05-10T08:18:56;5.30;;;0.70;;
64208;SDS011;50527;52.414;13.226;2023-05-10T08:21:22;1.15;;;0.60;;
64208;SDS011;50527;52.414;13.226;2023-05-10T08:23:47;5.80;;;0.80;;
64208;SDS011;50527;52.414;13.226;2023-05-10T08:26:13;2.28;;;0.65;;
64208;SDS011;50527;52.414;13.226;2023-05-10T08:28:39;2.83;;;0.60;;
64208;SDS011;50527;52.414;13.226;2023-05-10T08:31:05;2.38;;;0.90;;
64208;SDS011;50527;52.414;13.226;2023-05-10T08:33:30;2.35;;;0.60;;
64208;SDS011;50527;52.414;13.226;2023-05-10T08:35:56;3.17;;;0.77;;
64208;SDS011;50527;52.414;13.226;2023-05-10T08:38:21;4.20;;;0.70;;
64208;SDS011;50527;52.414;13.226;2023-05-10T08:40:46;2.28;;;0.68;;
64208;SDS011;50527;52.414;13.226;2023-05-10T08:43:15;1.05;;;0.55;;
64208;SDS011;50527;52.414;13.226;2023-05-10T08:45:42;1.60;;;0.60;;
64208;SDS011;50527;52.414;13.226;2023-05-10T08:48:10;2.72;;;0.65;;
64208;SDS011;50527;52.414;13.226;2023-05-10T08:50:36;2.65;;;0.93;;
64208;SDS011;50527;52.414;13.226;2023-05-10T08:53:09;6.90;;;1.00;;
64208;SDS011;50527;52.414;13.226;2023-05-10T08:55:37;1.60;;;0.70;;
64208;SDS011;50527;52.414;13.226;2023-05-10T08:58:04;6.95;;;0.82;;
64208;SDS011;50527;52.414;13.226;2023-05-10T09:00:30;2.35;;;0.60;;
64208;SDS011;50527;52.414;13.226;2023-05-10T09:02:57;4.05;;;0.77;;
64208;SDS011;50527;52.414;13.226;2023-05-10T09:05:23;1.23;;;0.57;;
64208;SDS011;50527;52.414;13.226;2023-05-10T09:07:49;1.02;;;0.50;;
64208;SDS011;50527;52.414;13.226;2023-05-10T09:10:14;2.38;;;0.70;;
64208;SDS011;50527;52.414;13.226;2023-05-10T09:12:40;3.10;;;0.70;;
64208;SDS011;50527;52.414;13.226;2023-05-10T09:15:07;2.67;;;0.60;;
64208;SDS011;50527;52.414;13.226;2023-05-10T09:17:34;1.50;;;0.63;;
64208;SDS011;50527;52.414;13.226;2023-05-10T09:20:00;3.17;;;0.70;;
64208;SDS011;50527;52.414;13.226;2023-05-10T09:22:27;2.38;;;0.50;;
64208;SDS011;50527;52.414;13.226;2023-05-10T09:25:26;3.60;;;0.80;;
64208;SDS011;50527;52.414;13.226;2023-05-10T09:27:46;7.45;;;0.80;;
64208;SDS011;50527;52.414;13.226;2023-05-10T09:30:27;2.17;;;0.60;;
64208;SDS011;50527;52.414;13.226;2023-05-10T09:32:54;2.75;;;0.68;;
64208;SDS011;50527;52.414;13.226;2023-05-10T09:35:22;2.80;;;0.57;;
64208;SDS011;50527;52.414;13.226;2023-05-10T09:37:52;0.93;;;0.60;;
64208;SDS011;50527;52.414;13.226;2023-05-10T09:40:21;3.50;;;0.70;;
64208;SDS011;50527;52.414;13.226;2023-05-10T09:42:55;2.97;;;0.60;;
64208;SDS011;50527;52.414;13.226;2023-05-10T09:45:21;1.95;;;0.70;;
64208;SDS011;50527;52.414;13.226;2023-05-10T09:47:48;2.00;;;0.55;;
64208;SDS011;50527;52.414;13.226;2023-05-10T09:50:14;1.00;;;0.50;;
64208;SDS011;50527;52.414;13.226;2023-05-10T09:52:50;4.22;;;0.60;;
64208;SDS011;50527;52.414;13.226;2023-05-10T09:55:24;2.50;;;0.73;;
64208;SDS011;50527;52.414;13.226;2023-05-10T09:58:06;1.50;;;0.50;;
64208;SDS011;50527;52.414;13.226;2023-05-10T10:00:53;2.33;;;0.43;;
64208;SDS011;50527;52.414;13.226;2023-05-10T10:03:20;1.45;;;0.50;;
64208;SDS011;50527;52.414;13.226;2023-05-10T10:05:46;4.97;;;0.57;;
64208;SDS011;50527;52.414;13.226;2023-05-10T10:08:13;3.47;;;0.80;;
64208;SDS011;50527;52.414;13.226;2023-05-10T10:10:39;1.23;;;0.60;;
64208;SDS011;50527;52.414;13.226;2023-05-10T10:13:05;1.30;;;0.57;;
64208;SDS011;50527;52.414;13.226;2023-05-10T10:15:32;2.85;;;0.68;;
64208;SDS011;50527;52.414;13.226;2023-05-10T10:17:59;3.50;;;0.60;;
64208;SDS011;50527;52.414;13.226;2023-05-10T10:20:25;1.88;;;0.52;;
64208;SDS011;50527;52.414;13.226;2023-05-10T10:22:52;2.75;;;0.50;;
64208;SDS011;50527;52.414;13.226;2023-05-10T10:25:18;1.48;;;0.60;;
64208;SDS011;50527;52.414;13.226;2023-05-10T10:27:48;2.67;;;0.50;;
64208;SDS011;50527;52.414;13.226;2023-05-10T10:30:41;7.45;;;0.60;;
64208;SDS011;50527;52.414;13.226;2023-05-10T10:33:28;2.28;;;0.63;;
64208;SDS011;50527;52.414;13.226;2023-05-10T10:36:14;1.33;;;0.57;;
64208;SDS011;50527;52.414;13.226;2023-05-10T10:41:29;0.90;;;0.60;;
64208;SDS011;50527;52.414;13.226;2023-05-10T10:46:59;1.25;;;0.50;;
64208;SDS011;50527;52.414;13.226;2023-05-10T10:49:25;3.85;;;0.63;;
64208;SDS011;50527;52.414;13.226;2023-05-10T10:57:23;2.53;;;0.57;;
64208;SDS011;50527;52.414;13.226;2023-05-10T10:59:51;3.90;;;0.55;;
64208;SDS011;50527;52.414;13.226;2023-05-10T11:05:55;2.80;;;0.52;;
64208;SDS011;50527;52.414;13.226;2023-05-10T11:13:17;1.20;;;0.50;;
64208;SDS011;50527;52.414;13.226;2023-05-10T11:18:37;2.67;;;0.50;;
64208;SDS011;50527;52.414;13.226;2023-05-10T11:21:03;1.92;;;0.50;;
64208;SDS011;50527;52.414;13.226;2023-05-10T11:23:30;4.50;;;0.68;;
64208;SDS011;50527;52.414;13.226;2023-05-10T11:25:57;2.70;;;0.50;;
64208;SDS011;50527;52.414;13.226;2023-05-10T11:28:23;1.15;;;0.60;;
64208;SDS011;50527;52.414;13.226;2023-05-10T11:30:50;5.00;;;0.65;;
64208;SDS011;50527;52.414;13.226;2023-05-10T11:33:17;2.53;;;0.60;;
64208;SDS011;50527;52.414;13.226;2023-05-10T11:35:44;3.17;;;0.40;;
64208;SDS011;50527;52.414;13.226;2023-05-10T11:38:10;2.15;;;0.68;;
64208;SDS011;50527;52.414;13.226;2023-05-10T11:40:37;1.85;;;0.52;;
64208;SDS011;50527;52.414;13.226;2023-05-10T11:43:03;4.05;;;0.60;;
64208;SDS011;50527;52.414;13.226;2023-05-10T11:45:33;4.35;;;0.65;;
64208;SDS011;50527;52.414;13.226;2023-05-10T11:48:00;2.90;;;0.70;;
64208;SDS011;50527;52.414;13.226;2023-05-10T11:50:26;1.05;;;0.50;;
64208;SDS011;50527;52.414;13.226;2023-05-10T11:52:52;2.92;;;0.50;;
64208;SDS011;50527;52.414;13.226;2023-05-10T11:55:19;1.38;;;0.60;;
64208;SDS011;50527;52.414;13.226;2023-05-10T11:57:45;1.00;;;0.40;;
64208;SDS011;50527;52.414;13.226;2023-05-10T12:00:11;1.13;;;0.50;;
64208;SDS011;50527;52.414;13.226;2023-05-10T12:02:38;6.65;;;0.70;;
64208;SDS011;50527;52.414;13.226;2023-05-10T12:05:04;2.15;;;0.50;;
64208;SDS011;50527;52.414;13.226;2023-05-10T12:07:30;1.33;;;0.60;;
64208;SDS011;50527;52.414;13.226;2023-05-10T12:10:09;1.50;;;0.70;;
64208;SDS011;50527;52.414;13.226;2023-05-10T12:15:10;1.63;;;0.50;;
64208;SDS011;50527;52.414;13.226;2023-05-10T12:17:37;1.50;;;0.57;;
64208;SDS011;50527;52.414;13.226;2023-05-10T12:20:20;2.00;;;0.40;;
64208;SDS011;50527;52.414;13.226;2023-05-10T12:22:51;4.95;;;0.50;;
64208;SDS011;50527;52.414;13.226;2023-05-10T12:25:22;1.70;;;0.52;;
64208;SDS011;50527;52.414;13.226;2023-05-10T12:27:50;4.47;;;0.70;;
64208;SDS011;50527;52.414;13.226;2023-05-10T12:30:20;4.03;;;0.55;;
64208;SDS011;50527;52.414;13.226;2023-05-10T12:32:47;1.67;;;0.70;;
64208;SDS011;50527;52.414;13.226;2023-05-10T12:35:13;1.25;;;0.50;;
64208;SDS011;50527;52.414;13.226;2023-05-10T12:37:38;1.48;;;0.55;;
64208;SDS011;50527;52.414;13.226;2023-05-10T12:40:07;1.70;;;0.70;;
64208;SDS011;50527;52.414;13.226;2023-05-10T12:42:34;0.93;;;0.50;;
64208;SDS011;50527;52.414;13.226;2023-05-10T12:45:01;1.88;;;0.60;;
64208;SDS011;50527;52.414;13.226;2023-05-10T12:47:27;2.38;;;0.50;;
64208;SDS011;50527;52.414;13.226;2023-05-10T12:49:53;5.30;;;0.60;;
64208;SDS011;50527;52.414;13.226;2023-05-10T12:52:18;2.15;;;0.50;;
64208;SDS011;50527;52.414;13.226;2023-05-10T12:54:44;0.95;;;0.50;;
64208;SDS011;50527;52.414;13.226;2023-05-10T12:57:09;7.13;;;0.60;;
64208;SDS011;50527;52.414;13.226;2023-05-10T12:59:35;2.50;;;0.68;;
64208;SDS011;50527;52.414;13.226;2023-05-10T13:02:00;4.32;;;0.60;;
64208;SDS011;50527;52.414;13.226;2023-05-10T13:04:26;4.63;;;0.77;;
64208;SDS011;50527;52.414;13.226;2023-05-10T13:06:51;1.90;;;0.50;;
64208;SDS011;50527;52.414;13.226;2023-05-10T13:09:17;2.17;;;0.50;;
64208;SDS011;50527;52.414;13.226;2023-05-10T13:11:42;2.10;;;0.60;;
64208;SDS011;50527;52.414;13.226;2023-05-10T13:14:08;2.90;;;0.60;;
64208;SDS011;50527;52.414;13.226;2023-05-10T13:16:33;1.83;;;0.50;;
64208;SDS011;50527;52.414;13.226;2023-05-10T13:18:59;4.45;;;0.77;;
64208;SDS011;50527;52.414;13.226;2023-05-10T13:21:25;1.27;;;0.50;;
64208;SDS011;50527;52.414;13.226;2023-05-10T13:23:51;2.08;;;0.60;;
64208;SDS011;50527;52.414;13.226;2023-05-10T13:26:17;2.67;;;0.50;;
64208;SDS011;50527;52.414;13.226;2023-05-10T13:28:43;3.85;;;0.60;;
64208;SDS011;50527;52.414;13.226;2023-05-10T13:31:08;1.85;;;0.60;;
64208;SDS011;50527;52.414;13.226;2023-05-10T13:33:34;2.53;;;0.55;;
64208;SDS011;50527;52.414;13.226;2023-05-10T13:35:59;1.98;;;0.50;;
64208;SDS011;50527;52.414;13.226;2023-05-10T13:38:25;1.33;;;0.63;;
64208;SDS011;50527;52.414;13.226;2023-05-10T13:40:50;1.90;;;0.68;;
64208;SDS011;50527;52.414;13.226;2023-05-10T13:43:17;2.75;;;0.68;;
64208;SDS011;50527;52.414;13.226;2023-05-10T13:45:43;2.15;;;0.60;;
64208;SDS011;50527;52.414;13.226;2023-05-10T13:48:09;3.58;;;0.50;;
64208;SDS011;50527;52.414;13.226;2023-05-10T13:50:34;1.88;;;0.70;;
64208;SDS011;50527;52.414;13.226;2023-05-10T13:53:00;3.88;;;0.60;;
64208;SDS011;50527;52.414;13.226;2023-05-10T13:55:25;1.50;;;0.60;;
64208;SDS011;50527;52.414;13.226;2023-05-10T13:57:51;1.85;;;0.50;;
64208;SDS011;50527;52.414;13.226;2023-05-10T14:00:16;0.80;;;0.50;;
64208;SDS011;50527;52.414;13.226;2023-05-10T14:02:42;1.05;;;0.52;;
64208;SDS011;50527;52.414;13.226;2023-05-10T14:05:08;6.10;;;0.70;;
64208;SDS011;50527;52.414;13.226;2023-05-10T14:07:33;3.00;;;0.70;;
64208;SDS011;50527;52.414;13.226;2023-05-10T14:09:59;2.97;;;0.60;;
64208;SDS011;50527;52.414;13.226;2023-05-10T14:12:25;1.73;;;0.60;;
64208;SDS011;50527;52.414;13.226;2023-05-10T14:14:50;2.25;;;0.82;;
64208;SDS011;50527;52.414;13.226;2023-05-10T14:17:17;2.05;;;0.80;;
64208;SDS011;50527;52.414;13.226;2023-05-10T14:19:42;1.50;;;0.70;;
64208;SDS011;50527;52.414;13.226;2023-05-10T14:22:08;1.70;;;0.80;;
64208;SDS011;50527;52.414;13.226;2023-05-10T14:24:33;1.15;;;0.68;;
64208;SDS011;50527;52.414;13.226;2023-05-10T14:26:59;1.27;;;0.75;;
64208;SDS011;50527;52.414;13.226;2023-05-10T14:29:25;0.70;;;0.50;;
64208;SDS011;50527;52.414;13.226;2023-05-10T14:31:50;2.28;;;0.45;;
64208;SDS011;50527;52.414;13.226;2023-05-10T14:34:16;4.38;;;0.70;;
64208;SDS011;50527;52.414;13.226;2023-05-10T14:36:42;2.20;;;0.50;;
64208;SDS011;50527;52.414;13.226;2023-05-10T14:39:07;2.00;;;0.50;;
64208;SDS011;50527;52.414;13.226;2023-05-10T14:41:34;3.42;;;0.60;;
64208;SDS011;50527;52.414;13.226;2023-05-10T14:44:00;7.93;;;0.70;;
64208;SDS011;50527;52.414;13.226;2023-05-10T14:46:26;4.45;;;0.80;;
64208;SDS011;50527;52.414;13.226;2023-05-10T14:48:52;3.63;;;0.85;;
64208;SDS011;50527;52.414;13.226;2023-05-10T14:51:17;5.72;;;0.75;;
64208;SDS011;50527;52.414;13.226;2023-05-10T14:53:46;1.27;;;0.55;;
64208;SDS011;50527;52.414;13.226;2023-05-10T14:56:12;2.20;;;0.90;;
64208;SDS011;50527;52.414;13.226;2023-05-10T14:58:38;6.03;;;0.90;;
64208;SDS011;50527;52.414;13.226;2023-05-10T15:01:03;3.35;;;0.70;;
64208;SDS011;50527;52.414;13.226;2023-05-10T15:03:29;2.08;;;0.65;;
64208;SDS011;50527;52.414;13.226;2023-05-10T15:05:54;3.42;;;0.77;;
64208;SDS011;50527;52.414;13.226;2023-05-10T15:08:22;1.27;;;0.65;;
64208;SDS011;50527;52.414;13.226;2023-05-10T15:10:49;4.20;;;0.47;;
64208;SDS011;50527;52.414;13.226;2023-05-10T15:13:15;3.72;;;0.70;;
64208;SDS011;50527;52.414;13.226;2023-05-10T15:15:40;3.95;;;0.80;;